Spring Creek, North Carolina
Current Conditions -  °F | °C
As of 2:54 AM on Tuesday 27 Jan 2015 (Local Time) from KAVL Reporting Station
Broken Clouds Broken Clouds  
Wind Chill: 17°   Ceiling: 4600
Heat Index: 28°   Visibility: 10mi
Dew Point: 21°   Wind: 14mph
Humidity: 75%   Direction: 350°N
Pressure: 29.76"   Gusts: 21mph
Location:  35.8037°N, 82.868°W
Report Text: KAVL 270754Z AUTO 35012G18KT 10SM BKN046 M02/M06 A2976 RMK AO2 SLP086 T10221061
Loading
Personal Weather Stations






























Interactive Weather Map New forecast layout! Learn more

10-Day Weather Forecast

Advertisements
Track Severe Weather on mobile